Time;durP1;ratioP1;P1;durP2;ratioP2;P2;SDS_P1;SDS_P2;PMS_P1;PMS_P2;Temp;Humidity;BMP_temperature;BMP_pressure;BME280_temperature;BME280_humidity;BME280_pressure;Samples;Min_cycle;Max_cycle;Signal;HPM_P1;HPM_P2
2021/06/08 00:01:05;;;;;;;;;16.50;15.00;;;;;22.30;47.58;101709.56;5088815;27;45371;-53
2021/06/08 00:03:31;;;;;;;;;15.00;14.50;;;;;22.31;47.66;101703.19;5088218;27;45380;-54
2021/06/08 00:05:57;;;;;;;;;17.50;15.75;;;;;22.30;47.52;101701.47;5092811;27;45608;-54
2021/06/08 00:08:23;;;;;;;;;19.75;17.25;;;;;22.30;47.46;101690.66;5081882;27;48141;-51
2021/06/08 00:10:48;;;;;;;;;14.50;14.50;;;;;22.27;47.16;101691.69;5085461;27;46006;-50
2021/06/08 00:13:14;;;;;;;;;16.00;16.00;;;;;22.25;47.27;101692.75;5097317;27;45438;-52
2021/06/08 00:15:40;;;;;;;;;16.75;16.75;;;;;22.24;47.17;101696.41;5092448;27;45544;-54
2021/06/08 00:18:05;;;;;;;;;14.00;14.00;;;;;22.21;46.94;101689.31;5085992;27;47347;-51
2021/06/08 00:20:31;;;;;;;;;17.50;17.50;;;;;22.21;46.98;101686.59;5088520;27;45328;-53
2021/06/08 00:22:56;;;;;;;;;18.75;17.25;;;;;22.21;47.21;101688.44;5096065;27;45467;-52
2021/06/08 00:25:22;;;;;;;;;15.50;15.00;;;;;22.18;47.23;101684.06;5086354;27;45670;-51
2021/06/08 00:27:48;;;;;;;;;16.50;15.50;;;;;22.18;46.99;101688.63;5085349;27;47342;-53
2021/06/08 00:30:13;;;;;;;;;18.25;16.25;;;;;22.18;46.97;101689.47;5093200;27;45364;-54
2021/06/08 00:32:39;;;;;;;;;16.00;14.50;;;;;22.18;47.00;101691.31;5095693;27;45252;-53
2021/06/08 00:35:05;;;;;;;;;17.50;15.50;;;;;22.18;46.85;101684.06;5096748;27;45442;-53
2021/06/08 00:37:31;;;;;;;;;16.00;14.75;;;;;22.18;47.01;101689.47;5096132;27;47211;-54
2021/06/08 00:39:56;;;;;;;;;19.50;16.75;;;;;22.17;47.03;101681.47;5089940;27;45954;-52
2021/06/08 00:42:33;;;;;;;;;16.25;15.75;;;;;22.15;46.81;101689.66;5093983;27;45268;-50
2021/06/08 00:44:59;;;;;;;;;17.25;15.50;;;;;22.13;47.29;101688.00;5086825;27;45475;-52
2021/06/08 00:47:24;;;;;;;;;17.25;17.00;;;;;22.10;46.84;101691.72;5093321;27;46129;-51
2021/06/08 00:49:51;;;;;;;;;19.25;19.25;;;;;22.09;47.20;101687.28;5095999;27;45481;-53
2021/06/08 00:52:17;;;;;;;;;20.00;18.25;;;;;22.06;46.97;101689.28;5087565;27;45407;-49
2021/06/08 00:54:42;;;;;;;;;22.00;19.25;;;;;22.02;47.25;101683.13;5090854;27;45494;-52
2021/06/08 00:57:08;;;;;;;;;18.00;18.00;;;;;21.99;47.34;101688.72;5080501;27;47520;-51
2021/06/08 00:59:33;;;;;;;;;20.75;20.50;;;;;21.98;46.88;101684.28;5096079;27;45380;-51
2021/06/08 01:01:59;;;;;;;;;18.25;17.00;;;;;21.96;47.60;101686.16;5092993;27;45490;-51
2021/06/08 01:04:25;;;;;;;;;16.25;15.00;;;;;21.95;46.97;101692.53;5093517;27;45308;-53
2021/06/08 01:06:51;;;;;;;;;19.00;17.25;;;;;21.94;47.38;101693.47;5082063;27;45423;-53
2021/06/08 01:09:16;;;;;;;;;24.00;20.25;;;;;21.92;47.55;101693.56;5082334;27;45423;-51
2021/06/08 01:11:42;;;;;;;;;20.25;20.00;;;;;21.91;47.07;101686.41;5091167;27;45670;-52
2021/06/08 01:14:07;;;;;;;;;20.75;18.00;;;;;21.90;47.63;101687.38;5088536;27;45628;-51
2021/06/08 01:16:33;;;;;;;;;18.00;16.00;;;;;21.90;47.66;101691.91;5085396;27;47412;-50
2021/06/08 01:19:00;;;;;;;;;19.00;17.75;;;;;21.90;47.62;101686.50;5093097;27;45385;-53
2021/06/08 01:21:27;;;;;;;;;18.00;18.00;;;;;21.88;47.77;101686.59;5099039;27;45439;-51
2021/06/08 01:23:53;;;;;;;;;18.00;18.00;;;;;21.86;47.31;101688.50;5099558;27;45274;-50
2021/06/08 01:26:26;;;;;;;;;18.50;17.50;;;;;21.87;47.75;101683.97;5089439;27;47356;-53
2021/06/08 01:28:53;;;;;;;;;21.00;20.50;;;;;21.84;47.14;101684.09;5084321;27;45486;-51
2021/06/08 01:31:21;;;;;;;;;22.00;20.25;;;;;21.80;47.65;101679.84;5096786;27;45369;-49
2021/06/08 01:33:47;;;;;;;;;21.75;20.75;;;;;21.77;47.74;101677.31;5096191;27;45585;-52
2021/06/08 01:36:15;;;;;;;;;22.25;20.25;;;;;21.74;47.52;101672.94;5084709;27;47145;-50
2021/06/08 01:38:43;;;;;;;;;18.50;18.25;;;;;21.72;47.79;101678.44;5087051;27;45918;-52
2021/06/08 01:41:12;;;;;;;;;22.00;21.00;;;;;21.70;47.83;101668.63;5098863;27;45458;-49
2021/06/08 01:43:44;;;;;;;;;22.25;21.50;;;;;21.66;47.39;101680.56;5089893;27;45520;-50
2021/06/08 01:46:09;;;;;;;;;23.50;20.25;;;;;21.65;48.19;101686.94;5087572;27;46299;-52
2021/06/08 01:48:36;;;;;;;;;23.50;21.50;;;;;21.64;48.10;101691.47;5087606;27;45313;-49
2021/06/08 01:51:30;;;;;;;;;21.50;20.25;;;;;21.58;47.68;101689.06;5094356;27;45398;-50
2021/06/08 01:53:59;;;;;;;;;27.25;23.75;;;;;21.58;47.85;101690.88;5068596;27;45255;-52
2021/06/08 01:56:28;;;;;;;;;23.50;22.00;;;;;21.52;47.61;101692.09;5094081;27;47205;-49
2021/06/08 01:59:12;;;;;;;;;21.50;21.50;;;;;21.42;47.82;101698.91;5088061;27;45358;-52
2021/06/08 02:01:55;;;;;;;;;20.75;20.75;;;;;21.32;47.96;101694.94;5101636;27;45519;-49
2021/06/08 02:04:26;;;;;;;;;22.50;22.50;;;;;21.20;48.13;101696.41;5082945;27;45306;-51
2021/06/08 02:07:26;;;;;;;;;22.75;21.25;;;;;21.15;48.36;101693.94;5085845;27;46791;-52
2021/06/08 02:10:19;;;;;;;;;24.75;22.75;;;;;21.17;48.78;101697.44;5089910;27;45532;-52
2021/06/08 02:12:55;;;;;;;;;23.25;22.25;;;;;21.17;48.67;101715.44;5092817;27;45346;-51
2021/06/08 02:15:27;;;;;;;;;23.50;23.00;;;;;21.13;49.00;101703.94;5087747;27;45348;-51
2021/06/08 02:17:54;;;;;;;;;18.75;18.75;;;;;21.12;48.78;101704.91;5088137;27;47734;-54
2021/06/08 02:20:25;;;;;;;;;15.25;15.00;;;;;21.14;48.96;101711.09;5090873;27;45838;-51
2021/06/08 02:22:53;;;;;;;;;20.25;20.25;;;;;21.16;49.27;101706.47;5094822;27;45343;-51
2021/06/08 02:25:21;;;;;;;;;19.75;19.00;;;;;21.19;49.52;101715.38;5089075;27;45416;-48
2021/06/08 02:27:51;;;;;;;;;20.50;20.50;;;;;21.16;49.28;101716.41;5086559;27;47501;-52
2021/06/08 02:30:18;;;;;;;;;17.00;16.75;;;;;21.14;49.64;101721.88;5095786;27;45448;-51
2021/06/08 02:32:46;;;;;;;;;22.00;21.50;;;;;21.08;49.81;101722.19;5090822;27;45445;-51
2021/06/08 02:35:12;;;;;;;;;17.50;17.25;;;;;21.04;49.65;101712.50;5089363;27;45460;-52
2021/06/08 02:37:39;;;;;;;;;18.25;17.75;;;;;21.06;49.60;101713.28;5103408;27;47422;-53
2021/06/08 02:40:06;;;;;;;;;18.50;18.50;;;;;21.09;50.11;101714.97;5089637;27;46117;-50
2021/06/08 02:42:32;;;;;;;;;16.75;16.75;;;;;21.10;49.68;101714.03;5112381;27;45439;-53
2021/06/08 02:44:59;;;;;;;;;18.00;18.00;;;;;21.13;49.88;101717.44;5091636;27;45696;-52
2021/06/08 02:47:25;;;;;;;;;18.50;18.50;;;;;21.14;50.09;101718.31;5097355;27;47576;-53
2021/06/08 02:49:51;;;;;;;;;20.25;17.50;;;;;21.11;49.87;101716.66;5089416;27;46242;-53
2021/06/08 02:52:19;;;;;;;;;18.75;18.25;;;;;21.11;49.78;101719.34;5089273;27;45565;-51
2021/06/08 02:54:46;;;;;;;;;20.00;19.00;;;;;21.11;49.83;101724.75;5085240;27;45266;-52
2021/06/08 02:57:12;;;;;;;;;24.25;19.75;;;;;21.09;49.86;101713.16;5088756;27;46080;-51
2021/06/08 02:59:39;;;;;;;;;23.50;22.50;;;;;21.08;50.21;101719.47;5092152;27;45323;-49
2021/06/08 03:02:09;;;;;;;;;17.00;16.25;;;;;21.08;49.53;101715.91;5093854;27;45472;-52
2021/06/08 03:04:53;;;;;;;;;20.00;18.50;;;;;21.06;49.56;101725.91;5081256;27;45413;-52
2021/06/08 03:07:23;;;;;;;;;20.50;19.00;;;;;21.05;49.76;101724.16;5084408;27;45490;-52
2021/06/08 03:10:01;;;;;;;;;18.25;18.25;;;;;21.05;50.44;101724.16;5104125;27;46025;-53
2021/06/08 03:12:33;;;;;;;;;22.00;19.25;;;;;21.02;49.63;101722.50;5094553;27;45516;-49
2021/06/08 03:15:02;;;;;;;;;23.00;21.25;;;;;20.99;49.98;101729.88;5086774;27;46670;-53
2021/06/08 03:17:29;;;;;;;;;36.25;33.25;;;;;20.93;50.43;101730.16;5084443;27;47760;-51
2021/06/08 03:20:01;;;;;;;;;22.50;21.75;;;;;20.86;49.73;101732.28;5091256;27;45807;-53
2021/06/08 03:22:29;;;;;;;;;21.00;19.50;;;;;20.83;50.10;101740.50;5094695;27;45375;-53
2021/06/08 03:24:57;;;;;;;;;22.75;21.25;;;;;20.82;50.03;101727.97;5090876;27;45624;-51
2021/06/08 03:27:24;;;;;;;;;22.25;20.00;;;;;20.80;50.38;101735.28;5095316;27;48059;-51
2021/06/08 03:29:51;;;;;;;;;25.50;22.50;;;;;20.79;50.46;101731.69;5088766;27;45523;-52
2021/06/08 03:32:19;;;;;;;;;21.75;19.75;;;;;20.78;50.35;101735.34;5092402;27;45551;-52
2021/06/08 03:34:44;;;;;;;;;27.25;25.50;;;;;20.78;50.18;101729.09;5100709;27;45283;-50
2021/06/08 03:37:12;;;;;;;;;22.00;22.00;;;;;20.74;50.27;101738.28;5089502;27;48336;-51
2021/06/08 03:39:38;;;;;;;;;24.75;24.75;;;;;20.69;50.20;101733.09;5090590;27;45357;-51
2021/06/08 03:42:05;;;;;;;;;23.25;21.00;;;;;20.68;50.38;101743.94;5094245;27;45369;-50
2021/06/08 03:44:34;;;;;;;;;21.75;20.25;;;;;20.66;50.26;101746.72;5095958;27;45905;-51
2021/06/08 03:47:00;;;;;;;;;22.25;22.25;;;;;20.63;50.61;101737.91;5096497;27;46340;-48
2021/06/08 03:49:25;;;;;;;;;24.25;22.75;;;;;20.64;50.51;101740.53;5096930;27;45778;-49
2021/06/08 03:51:53;;;;;;;;;22.00;20.00;;;;;20.57;50.53;101739.94;5091439;27;47462;-49
2021/06/08 03:54:18;;;;;;;;;27.25;23.00;;;;;20.57;50.76;101734.53;5097178;27;45470;-53
2021/06/08 03:56:52;;;;;;;;;24.75;24.75;;;;;20.60;50.56;101741.63;5081464;27;46972;-51
2021/06/08 03:59:22;;;;;;;;;18.00;18.00;;;;;20.63;50.52;101740.59;5089029;27;45321;-48
2021/06/08 04:01:50;;;;;;;;;21.50;19.75;;;;;20.64;50.72;101740.53;5096706;27;45397;-53
2021/06/08 04:04:17;;;;;;;;;19.00;19.00;;;;;20.65;50.37;101744.97;5110862;27;46004;-51
2021/06/08 04:06:44;;;;;;;;;22.75;20.50;;;;;20.65;50.56;101742.28;5083338;27;47622;-52
2021/06/08 04:09:10;;;;;;;;;22.75;21.75;;;;;20.68;50.25;101746.66;5091291;27;45451;-54
2021/06/08 04:11:36;;;;;;;;;25.25;23.50;;;;;20.69;50.19;101743.88;5097140;27;45441;-52
2021/06/08 04:14:03;;;;;;;;;19.00;19.00;;;;;20.70;50.23;101744.75;5094843;27;45498;-52
2021/06/08 04:16:29;;;;;;;;;21.00;20.50;;;;;20.72;49.63;101742.88;5094995;27;46122;-50
2021/06/08 04:18:55;;;;;;;;;19.25;19.25;;;;;20.69;50.12;101743.00;5096587;27;45631;-50
2021/06/08 04:21:23;;;;;;;;;23.50;22.50;;;;;20.68;49.68;101743.94;5095550;27;45491;-51
2021/06/08 04:24:01;;;;;;;;;24.25;22.25;;;;;20.69;49.86;101746.56;5096089;27;45598;-49
2021/06/08 04:26:28;;;;;;;;;26.50;22.00;;;;;20.70;49.92;101742.91;5092366;27;48102;-54
2021/06/08 04:28:54;;;;;;;;;19.50;19.25;;;;;20.70;50.25;101751.00;5089596;27;45612;-52
2021/06/08 04:31:24;;;;;;;;;20.50;20.50;;;;;20.72;50.09;101749.16;5093464;27;45501;-49
2021/06/08 04:33:50;;;;;;;;;22.00;19.75;;;;;20.76;50.00;101744.47;5093802;27;45458;-53
2021/06/08 04:36:16;;;;;;;;;20.50;19.75;;;;;20.79;50.02;101742.50;5094245;27;48108;-54
2021/06/08 04:38:42;;;;;;;;;20.75;19.50;;;;;20.84;50.19;101742.28;5095967;27;45409;-53
2021/06/08 04:41:08;;;;;;;;;23.00;23.00;;;;;20.87;50.29;101747.53;5094933;27;45302;-49
2021/06/08 04:43:34;;;;;;;;;23.25;22.75;;;;;20.88;49.81;101746.59;5093082;27;45778;-54
2021/06/08 04:46:07;;;;;;;;;24.25;21.50;;;;;20.87;50.08;101744.84;5092233;27;47969;-53
2021/06/08 04:48:33;;;;;;;;;22.75;21.50;;;;;20.85;49.62;101749.44;5096675;27;45653;-51
2021/06/08 04:50:59;;;;;;;;;21.50;18.50;;;;;20.82;49.73;101750.44;5099473;27;45401;-50
2021/06/08 04:53:25;;;;;;;;;18.00;18.00;;;;;20.82;49.88;101758.53;5092745;27;45340;-52
2021/06/08 04:55:52;;;;;;;;;18.75;17.75;;;;;20.82;50.32;101758.53;5099887;27;47145;-52
2021/06/08 04:58:18;;;;;;;;;20.50;20.50;;;;;20.85;50.30;101752.13;5095466;27;45418;-50
2021/06/08 05:01:20;;;;;;;;;22.25;22.25;;;;;20.86;49.73;101754.75;5088553;27;45303;-50
2021/06/08 05:03:50;;;;;;;;;30.00;26.50;;;;;20.83;49.76;101763.00;5097694;27;45619;-50
2021/06/08 05:06:22;;;;;;;;;23.00;22.75;;;;;20.78;49.59;101759.63;5095630;27;47658;-57
2021/06/08 05:08:52;;;;;;;;;25.25;24.50;;;;;20.78;50.04;101756.94;5095609;27;45498;-53
2021/06/08 05:11:39;;;;;;;;;26.50;24.00;;;;;20.80;50.16;101762.25;5098121;27;45467;-53
2021/06/08 05:14:07;;;;;;;;;25.25;24.25;;;;;20.86;49.91;101756.56;5093727;27;45591;-52
2021/06/08 05:16:33;;;;;;;;;24.50;23.25;;;;;20.82;49.80;101750.44;5096249;27;48580;-54
2021/06/08 05:19:00;;;;;;;;;25.50;23.00;;;;;20.78;49.74;101758.75;5098573;27;45441;-51
2021/06/08 05:21:27;;;;;;;;;24.75;24.50;;;;;20.81;49.85;101755.91;5098642;27;45489;-50
2021/06/08 05:23:54;;;;;;;;;24.75;23.75;;;;;20.81;50.11;101759.47;5106534;27;45569;-52
2021/06/08 05:26:21;;;;;;;;;22.50;22.25;;;;;20.83;50.31;101756.69;5095605;27;47393;-50
2021/06/08 05:28:47;;;;;;;;;25.00;25.00;;;;;20.86;50.47;101754.75;5099188;27;46050;-50
2021/06/08 05:31:17;;;;;;;;;22.75;21.00;;;;;20.87;50.42;101758.31;5098487;27;45650;-56
2021/06/08 05:33:43;;;;;;;;;21.50;21.50;;;;;20.89;50.02;101766.34;5087355;27;45404;-49
2021/06/08 05:36:08;;;;;;;;;22.50;21.75;;;;;20.87;50.05;101766.41;5097942;27;47075;-52
2021/06/08 05:38:36;;;;;;;;;21.25;21.25;;;;;20.88;50.43;101767.28;5097584;27;46024;-52
2021/06/08 05:41:07;;;;;;;;;24.75;23.75;;;;;20.92;49.79;101763.50;5099430;27;45555;-49
2021/06/08 05:43:33;;;;;;;;;23.25;22.25;;;;;20.95;49.82;101761.50;5096574;27;45369;-52
2021/06/08 05:45:59;;;;;;;;;22.75;21.75;;;;;20.98;50.21;101766.78;5097013;27;47280;-52
2021/06/08 05:48:26;;;;;;;;;26.00;26.00;;;;;21.02;49.99;101762.97;5098206;27;45653;-51
2021/06/08 05:50:56;;;;;;;;;28.00;28.00;;;;;21.05;50.07;101768.22;5093904;27;45495;-52
2021/06/08 05:53:23;;;;;;;;;27.25;27.25;;;;;21.09;49.74;101768.97;5096900;27;45561;-52
2021/06/08 05:55:50;;;;;;;;;28.25;28.25;;;;;21.05;49.63;101770.03;5095673;27;47408;-51
2021/06/08 05:58:16;;;;;;;;;25.75;25.75;;;;;21.07;49.77;101770.84;5095482;27;45685;-53
2021/06/08 06:00:42;;;;;;;;;25.50;24.50;;;;;21.14;49.98;101766.91;5089036;27;45325;-52
2021/06/08 06:03:08;;;;;;;;;26.25;25.75;;;;;21.19;49.63;101767.53;5098058;27;45417;-54
2021/06/08 06:05:36;;;;;;;;;24.75;23.00;;;;;21.25;49.79;101769.06;5092630;27;46985;-54
2021/06/08 06:08:04;;;;;;;;;27.75;26.25;;;;;21.30;49.63;101767.91;5096713;27;46170;-54
2021/06/08 06:10:30;;;;;;;;;29.00;26.75;;;;;21.33;49.74;101769.59;5098453;27;45627;-54
2021/06/08 06:12:57;;;;;;;;;28.50;28.50;;;;;21.34;49.40;101764.13;5094785;27;45583;-54
2021/06/08 06:15:24;;;;;;;;;22.50;22.00;;;;;21.38;49.40;101773.81;5097518;27;48565;-51
2021/06/08 06:17:52;;;;;;;;;28.00;28.00;;;;;21.37;49.41;101766.69;5098947;27;45364;-52
2021/06/08 06:20:18;;;;;;;;;25.00;23.75;;;;;21.35;49.51;101765.88;5096601;27;45494;-53
2021/06/08 06:22:44;;;;;;;;;26.00;25.75;;;;;21.34;49.67;101760.53;5098244;27;45821;-50
2021/06/08 06:25:12;;;;;;;;;28.75;27.25;;;;;21.34;49.58;101772.25;5091948;27;47751;-50
2021/06/08 06:27:40;;;;;;;;;23.00;23.00;;;;;21.35;49.11;101765.88;5096723;27;45237;-54
2021/06/08 06:30:08;;;;;;;;;28.75;26.75;;;;;21.33;49.15;101767.75;5096332;27;45828;-50
2021/06/08 06:32:34;;;;;;;;;27.00;26.25;;;;;21.34;49.67;101772.25;5094061;27;46285;-51
2021/06/08 06:35:06;;;;;;;;;25.50;24.75;;;;;21.36;49.41;101770.31;5095975;27;47156;-52
2021/06/08 06:37:33;;;;;;;;;32.75;30.00;;;;;21.38;49.41;101770.25;5099853;27;45982;-52
2021/06/08 06:40:01;;;;;;;;;31.75;28.75;;;;;21.37;49.51;101772.06;5080740;27;45379;-52
2021/06/08 06:42:33;;;;;;;;;29.50;29.25;;;;;21.36;49.51;101782.97;5078246;28;45508;-53
2021/06/08 06:45:03;;;;;;;;;30.25;27.50;;;;;21.33;49.55;101781.25;5073070;28;48481;-52
2021/06/08 06:47:29;;;;;;;;;32.75;30.50;;;;;21.35;49.36;101781.22;5077506;28;45484;-51
2021/06/08 06:49:55;;;;;;;;;25.50;25.00;;;;;21.35;49.64;101779.38;5079060;27;45370;-51
2021/06/08 06:52:21;;;;;;;;;29.75;28.25;;;;;21.35;49.54;101781.22;5077193;27;45494;-51
2021/06/08 06:54:47;;;;;;;;;27.25;24.25;;;;;21.33;49.74;101786.66;5078760;28;47552;-52
2021/06/08 06:57:12;;;;;;;;;27.25;27.25;;;;;21.34;49.22;101783.03;5079475;27;45429;-53
2021/06/08 06:59:39;;;;;;;;;26.75;25.25;;;;;21.37;49.27;101782.00;5077915;28;45386;-52
2021/06/08 07:02:05;;;;;;;;;29.50;29.50;;;;;21.42;49.83;101786.22;5077418;28;45698;-51
2021/06/08 07:04:32;;;;;;;;;24.25;24.25;;;;;21.47;49.27;101783.31;5076328;28;47185;-52
2021/06/08 07:06:58;;;;;;;;;37.50;33.00;;;;;21.50;49.55;101784.97;5078577;27;45540;-52
2021/06/08 07:09:27;;;;;;;;;27.25;27.25;;;;;21.51;49.65;101794.81;5078300;28;45658;-51
2021/06/08 07:11:54;;;;;;;;;30.00;27.75;;;;;21.51;49.17;101793.00;5077964;28;45437;-50
2021/06/08 07:14:21;;;;;;;;;29.25;28.00;;;;;21.50;49.29;101787.66;5094011;27;48365;-55
2021/06/08 07:16:48;;;;;;;;;32.50;31.00;;;;;21.49;48.92;101775.13;5078771;28;45952;-53
2021/06/08 07:19:15;;;;;;;;;32.50;30.25;;;;;21.43;49.00;101790.66;5079294;27;45526;-52
2021/06/08 07:21:42;;;;;;;;;30.75;30.50;;;;;21.44;49.23;101786.13;5079733;27;45696;-51
2021/06/08 07:24:10;;;;;;;;;30.75;29.75;;;;;21.47;49.16;101782.41;5078803;28;48181;-55
2021/06/08 07:26:37;;;;;;;;;32.00;30.25;;;;;21.48;49.46;101787.75;5078953;28;45378;-49
2021/06/08 07:29:04;;;;;;;;;35.75;31.75;;;;;21.48;49.14;101785.03;5065976;27;45353;-50
2021/06/08 07:31:43;;;;;;;;;32.75;32.00;;;;;21.43;49.52;101778.97;5079299;27;45691;-52
2021/06/08 07:34:14;;;;;;;;;34.50;31.00;;;;;21.43;49.48;101778.97;5079354;27;47328;-50
2021/06/08 07:36:45;;;;;;;;;32.75;31.50;;;;;21.43;49.42;101779.84;5073236;28;45332;-49
2021/06/08 07:39:21;;;;;;;;;33.50;32.25;;;;;21.46;49.04;101781.53;5089593;27;45422;-52
2021/06/08 07:42:18;;;;;;;;;25.75;25.75;;;;;21.48;49.70;101784.16;5059417;27;45789;-52
2021/06/08 07:45:01;;;;;;;;;31.25;30.50;;;;;21.47;49.62;101777.91;5097302;27;47215;-53
2021/06/08 07:47:33;;;;;;;;;35.25;32.75;;;;;21.48;49.11;101784.16;5096298;27;45859;-53
2021/06/08 07:50:02;;;;;;;;;35.00;32.25;;;;;21.49;49.30;101783.22;5099517;27;45592;-51
2021/06/08 07:52:28;;;;;;;;;34.00;32.25;;;;;21.50;49.67;101782.25;5096092;27;45434;-52
2021/06/08 07:54:55;;;;;;;;;30.00;28.75;;;;;21.53;49.67;101776.69;5094687;27;47637;-55
2021/06/08 07:57:21;;;;;;;;;34.75;33.25;;;;;21.54;49.77;101778.44;5091094;27;45474;-54
2021/06/08 07:59:47;;;;;;;;;30.50;30.50;;;;;21.56;49.19;101774.72;5097375;27;45655;-51
2021/06/08 08:02:18;;;;;;;;;33.50;30.75;;;;;21.56;49.75;101765.72;5098838;27;45506;-52
2021/06/08 08:04:52;;;;;;;;;36.75;33.25;;;;;21.58;49.79;101767.41;5098994;27;46212;-52
2021/06/08 08:07:26;;;;;;;;;30.00;30.00;;;;;21.61;49.81;101769.09;5081592;27;45967;-50
2021/06/08 08:09:53;;;;;;;;;28.50;26.75;;;;;21.63;49.42;101768.06;5099194;27;45538;-54
2021/06/08 08:12:19;;;;;;;;;28.25;28.25;;;;;21.68;49.67;101765.97;5097399;27;45422;-54
2021/06/08 08:14:46;;;;;;;;;29.25;29.25;;;;;21.72;49.20;101770.28;5097430;27;47497;-55
2021/06/08 08:17:13;;;;;;;;;33.00;31.00;;;;;21.74;49.19;101762.09;5097372;27;45715;-55
2021/06/08 08:19:40;;;;;;;;;28.75;25.75;;;;;21.73;49.72;101763.06;5099010;27;45302;-54
2021/06/08 08:22:06;;;;;;;;;27.75;25.75;;;;;21.76;49.71;101760.19;5099065;27;45610;-55
2021/06/08 08:24:33;;;;;;;;;33.75;32.00;;;;;21.79;49.32;101762.72;5098378;27;46967;-52
2021/06/08 08:27:01;;;;;;;;;29.00;26.00;;;;;21.83;49.27;101758.91;5102079;27;45302;-55
2021/06/08 08:29:27;;;;;;;;;26.00;24.75;;;;;21.85;49.36;101750.72;5102433;27;45380;-54
2021/06/08 08:31:53;;;;;;;;;21.50;20.25;;;;;21.87;49.78;101752.41;5118125;27;45824;-53
2021/06/08 08:34:18;;;;;;;;;25.00;24.75;;;;;21.91;49.62;101756.69;5083620;27;46017;-53
2021/06/08 08:36:44;;;;;;;;;31.50;29.00;;;;;21.97;49.46;101756.34;5099395;27;45420;-54
2021/06/08 08:39:11;;;;;;;;;37.25;33.25;;;;;22.01;48.57;101744.44;5101872;27;45448;-50
2021/06/08 08:41:37;;;;;;;;;30.00;29.25;;;;;22.04;48.93;101746.97;5098797;27;45648;-55
2021/06/08 08:44:06;;;;;;;;;33.50;32.00;;;;;22.07;48.60;101750.50;5098721;27;47716;-54
2021/06/08 08:46:32;;;;;;;;;35.25;31.75;;;;;22.06;48.83;101746.91;5094802;27;45833;-52
2021/06/08 08:48:58;;;;;;;;;31.75;31.00;;;;;22.06;48.67;101749.63;5113767;27;45796;-54
2021/06/08 08:51:27;;;;;;;;;33.50;31.25;;;;;22.07;48.35;101748.66;5099810;27;45450;-54
2021/06/08 08:53:54;;;;;;;;;38.00;34.00;;;;;22.09;48.83;101741.34;5098532;27;47487;-52
2021/06/08 08:56:31;;;;;;;;;34.00;30.50;;;;;22.15;48.51;101745.56;5098825;27;45497;-54
2021/06/08 08:59:03;;;;;;;;;34.75;31.00;;;;;22.19;48.13;101749.84;5098672;27;45601;-53
2021/06/08 09:01:28;;;;;;;;;27.75;27.75;;;;;22.21;48.80;101747.91;5099609;27;45448;-55
2021/06/08 09:03:54;;;;;;;;;27.00;26.00;;;;;22.23;48.41;101746.91;5099255;27;45683;-53
2021/06/08 09:06:21;;;;;;;;;25.00;25.00;;;;;22.27;48.24;101748.47;5099559;27;46253;-50
2021/06/08 09:08:46;;;;;;;;;25.25;25.25;;;;;22.31;48.04;101750.03;5097844;27;45439;-51
2021/06/08 09:11:13;;;;;;;;;27.25;26.75;;;;;22.36;48.36;101746.22;5099850;27;46988;-53
2021/06/08 09:13:42;;;;;;;;;28.25;26.75;;;;;22.39;48.28;101740.66;5113775;27;48175;-53
2021/06/08 09:16:09;;;;;;;;;27.00;27.00;;;;;22.39;48.30;101736.13;5095807;27;45389;-53
2021/06/08 09:18:35;;;;;;;;;26.50;25.50;;;;;22.42;48.35;101733.25;5099233;27;45433;-52
2021/06/08 09:21:12;;;;;;;;;27.75;26.75;;;;;22.45;47.88;101730.34;5099537;27;45326;-53
2021/06/08 09:23:37;;;;;;;;;29.00;28.50;;;;;22.48;47.80;101727.47;5096263;27;47198;-54
2021/06/08 09:26:03;;;;;;;;;32.00;30.50;;;;;22.51;47.74;101729.16;5096576;27;45423;-54
2021/06/08 09:28:28;;;;;;;;;26.25;25.75;;;;;22.53;47.94;101725.41;5096538;27;45505;-53
2021/06/08 09:30:59;;;;;;;;;24.00;24.00;;;;;22.55;47.76;101722.63;5101304;27;45691;-54
2021/06/08 09:33:28;;;;;;;;;26.50;26.50;;;;;22.60;47.84;101726.78;5098249;27;47048;-53
2021/06/08 09:36:02;;;;;;;;;30.00;27.00;;;;;22.65;47.71;101725.69;5111830;27;45784;-53
2021/06/08 09:38:50;;;;;;;;;25.50;25.50;;;;;22.68;47.34;101723.66;5096986;27;45903;-55
2021/06/08 09:41:31;;;;;;;;;25.25;23.75;;;;;22.74;47.58;101720.63;5099252;27;45357;-53
2021/06/08 09:44:00;;;;;;;;;21.75;21.75;;;;;22.78;47.64;101715.91;5101368;27;47173;-54
2021/06/08 09:46:48;;;;;;;;;26.50;24.00;;;;;22.82;47.33;101717.47;5108894;27;45395;-55
2021/06/08 09:49:30;;;;;;;;;28.25;27.00;;;;;22.87;47.27;101712.72;5097284;27;45371;-54
2021/06/08 09:51:56;;;;;;;;;26.00;25.00;;;;;22.90;47.04;101716.13;5096490;27;45340;-56
2021/06/08 09:54:36;;;;;;;;;23.25;22.50;;;;;22.95;47.33;101714.97;5096183;27;45620;-56
2021/06/08 09:57:17;;;;;;;;;27.50;27.00;;;;;22.99;47.36;101720.09;5096868;27;45348;-57
2021/06/08 09:59:55;;;;;;;;;22.75;22.00;;;;;23.03;46.88;101716.28;5100281;27;45330;-56
2021/06/08 10:02:33;;;;;;;;;22.75;22.75;;;;;23.09;47.02;101710.50;5097945;27;45658;-55
2021/06/08 10:05:23;;;;;;;;;22.00;21.50;;;;;23.15;46.59;101714.69;5095913;27;48082;-55
2021/06/08 10:07:57;;;;;;;;;22.25;22.25;;;;;23.21;46.76;101714.31;5094392;27;45517;-56
2021/06/08 10:10:34;;;;;;;;;25.00;24.75;;;;;23.27;46.88;101700.44;5099673;27;46430;-57
2021/06/08 10:13:19;;;;;;;;;22.75;22.50;;;;;23.35;46.24;101714.38;5082791;27;45376;-56
2021/06/08 10:15:53;;;;;;;;;26.00;23.25;;;;;23.43;46.32;101703.97;5099646;27;45552;-57
2021/06/08 10:18:19;;;;;;;;;24.00;24.00;;;;;23.54;46.44;101702.47;5088243;27;45370;-53
2021/06/08 10:20:56;;;;;;;;;21.75;20.75;;;;;23.64;45.95;101703.69;5094474;27;45402;-56
2021/06/08 10:23:31;;;;;;;;;21.00;19.00;;;;;23.75;45.52;101701.16;5092217;27;45476;-56
2021/06/08 10:26:00;;;;;;;;;22.75;22.75;;;;;23.81;45.35;101698.09;5098427;27;48236;-55
2021/06/08 10:28:27;;;;;;;;;23.00;23.00;;;;;23.84;44.76;101697.91;5098192;27;45362;-57
2021/06/08 10:30:54;;;;;;;;;28.00;28.00;;;;;23.84;45.08;101695.19;5089075;27;45419;-58
2021/06/08 10:33:24;;;;;;;;;19.75;19.00;;;;;23.86;44.90;101692.38;5101733;27;45294;-59
2021/06/08 10:35:51;;;;;;;;;17.25;17.25;;;;;23.89;45.06;101687.66;5094445;27;47459;-57
2021/06/08 10:38:19;;;;;;;;;19.50;18.00;;;;;23.98;44.71;101691.63;5091587;27;45368;-57
2021/06/08 10:40:50;;;;;;;;;24.75;23.75;;;;;24.11;44.60;101692.59;5099110;27;45330;-55
2021/06/08 10:43:18;;;;;;;;;21.25;21.25;;;;;24.25;44.15;101689.88;5095525;27;45519;-59
2021/06/08 10:45:46;;;;;;;;;21.75;21.75;;;;;24.36;44.14;101700.94;5095423;27;47405;-53
2021/06/08 10:48:19;;;;;;;;;21.25;21.25;;;;;24.48;43.58;101696.59;5094398;27;45429;-54
2021/06/08 10:50:50;;;;;;;;;18.25;18.25;;;;;24.59;42.99;101695.91;5087970;27;45437;-57
2021/06/08 10:53:30;;;;;;;;;19.75;19.75;;;;;24.67;42.99;101687.25;5095338;27;45262;-57
2021/06/08 10:55:57;;;;;;;;;19.50;19.50;;;;;24.74;42.59;101689.47;5095831;27;46878;-60
2021/06/08 10:58:45;;;;;;;;;20.50;20.50;;;;;24.82;42.21;101686.25;5097181;27;45548;-57
2021/06/08 11:01:42;;;;;;;;;18.75;17.25;;;;;24.85;42.18;101686.91;5092312;27;45422;-57
2021/06/08 11:04:16;;;;;;;;;21.75;21.50;;;;;24.86;42.00;101682.34;5091789;27;45279;-56
2021/06/08 11:06:56;;;;;;;;;18.50;17.25;;;;;24.83;42.12;101680.72;5090167;27;47333;-55
2021/06/08 11:09:24;;;;;;;;;21.25;21.00;;;;;24.82;42.00;101687.13;5105738;27;45365;-56
2021/06/08 11:11:54;;;;;;;;;20.25;20.25;;;;;24.83;42.14;101693.41;5093000;27;45349;-56
2021/06/08 11:14:29;;;;;;;;;19.25;19.25;;;;;24.88;41.91;101688.53;5096047;27;45446;-56
2021/06/08 11:17:07;;;;;;;;;18.50;18.50;;;;;24.93;42.14;101684.56;5099553;27;47534;-57
2021/06/08 11:19:45;;;;;;;;;20.25;18.75;;;;;25.03;42.09;101683.97;5095696;27;45478;-58